Empire State — WDE4431 — position and weather

sailwx.info

Track history (hours):
 
Tides and Currents Weather Stations Pressure Air Temp Water Temp Dewpoint Dewpoint Depression Visibility Wind Speed Wind Dir Waves Ship Positions

Empire State

Owner: Crowley Petroleum Services, Jacksonville, FL. More information available from US FCC via Universal Licensing System and Coast Guard Vessel Documentation Center.

Last reported at 2017-Nov-17 13:36 UTC. Time now 2017-Nov-25 06:08 UTC.
Position N 34°09' W 122°02'.

Length 183 m; draft 9.3 m.

Type: Military. MMSI: 367353080.

Date/timePositionNaut miles runAvg speedWind from/ knotsBaromVisibWave heightAir tempDewpointWater temp
2017-Nov-17 13:36N 34°09' W 122°02'113.8
2017-Nov-17 13:30N 34°08' W 122°00'714.0
2017-Nov-17 13:01N 34°03' W 121°55'714.1
2017-Nov-17 12:31N 33°57' W 121°49'713.8
2017-Nov-17 12:00N 33°52' W 121°43'713.9
2017-Nov-17 11:30N 33°47' W 121°37'714.1
2017-Nov-17 11:01N 33°42' W 121°32'714.2
2017-Nov-17 10:31N 33°37' W 121°26'714.1
2017-Nov-17 10:01N 33°32' W 121°20'713.7
2017-Nov-17 09:30N 33°27' W 121°15'713.3
2017-Nov-17 09:00N 33°22' W 121°09'714.0
2017-Nov-17 08:31N 33°17' W 121°03'714.1
2017-Nov-17 08:00N 33°12' W 120°58'714.3
2017-Nov-17 07:31N 33°07' W 120°52'714.3
2017-Nov-17 07:01N 33°01' W 120°46'714.4
2017-Nov-17 06:30N 32°56' W 120°40'714.6
2017-Nov-17 06:01N 32°51' W 120°34'714.8
2017-Nov-17 05:31N 32°45' W 120°28'714.7
2017-Nov-17 05:01N 32°40' W 120°22'714.4
2017-Nov-17 04:30N 32°35' W 120°17'714.4
2017-Nov-17 04:00N 32°29' W 120°11'714.7
2017-Nov-17 03:31N 32°24' W 120°05'1013.8
2017-Nov-17 02:45N 32°19' W 119°54'1014.4
2017-Nov-17 02:05N 32°17' W 119°43'113.4
2017-Nov-17 02:01N 32°17' W 119°42'714.6
2017-Nov-17 01:31N 32°15' W 119°33'714.3
2017-Nov-17 01:00N 32°14' W 119°25'713.8
2017-Nov-17 00:30N 32°13' W 119°17'814.3
2017-Nov-16 23:58N 32°11' W 119°08'714.9
2017-Nov-16 23:30N 32°14' W 119°00'714.8
2017-Nov-16 23:01N 32°17' W 118°53'714.9
2017-Nov-16 22:31N 32°20' W 118°45'715.0
2017-Nov-16 22:01N 32°24' W 118°37'815.3
2017-Nov-16 21:31N 32°27' W 118°29'815.2
2017-Nov-16 21:01N 32°31' W 118°21'815.4
2017-Nov-16 20:30N 32°34' W 118°12'815.3
2017-Nov-16 20:01N 32°38' W 118°04'815.2
2017-Nov-16 19:30N 32°41' W 117°56'714.4
2017-Nov-16 19:01N 32°42' W 117°48'815.2
2017-Nov-16 18:30N 32°41' W 117°39'715.0
2017-Nov-16 18:00N 32°39' W 117°30'714.3
2017-Nov-16 17:31N 32°38' W 117°22'711.6
2017-Nov-16 16:55N 32°38' W 117°14'3 0.1
2017-Nov-15 15:41N 32°41' W 117°14'1 3.8
2017-Nov-15 15:25N 32°40' W 117°14'3 8.2
2017-Nov-15 15:00N 32°37' W 117°14'4 7.8
2017-Nov-15 14:29N 32°37' W 117°19'4 8.5
2017-Nov-15 14:00N 32°38' W 117°24'4 8.2
2017-Nov-15 13:30N 32°39' W 117°29'4 8.3
2017-Nov-15 13:00N 32°40' W 117°33'4 8.2
2017-Nov-15 12:30N 32°40' W 117°38'4 7.8
2017-Nov-15 12:00N 32°41' W 117°43'3 5.2
2017-Nov-15 11:30N 32°42' W 117°46'2 4.7
2017-Nov-15 11:00N 32°42' W 117°49'2 4.7
2017-Nov-15 10:30N 32°42' W 117°51'2 4.1
2017-Nov-15 10:00N 32°44' W 117°53'3 5.0
2017-Nov-15 09:30N 32°46' W 117°54'3 5.1
2017-Nov-15 09:00N 32°48' W 117°55'3 5.1
2017-Nov-15 08:30N 32°51' W 117°56'3 5.2
2017-Nov-15 08:00N 32°53' W 117°57'3 5.2
2017-Nov-15 07:30N 32°56' W 117°58'3 5.3
2017-Nov-15 07:00N 32°58' W 117°59'3 5.3
2017-Nov-15 06:30N 33°01' W 118°00'3 5.3
2017-Nov-15 06:00N 33°03' W 118°01'3 5.5
2017-Nov-15 05:30N 33°06' W 118°02'3 6.9
2017-Nov-15 05:00N 33°09' W 118°03'612.0
2017-Nov-15 04:30N 33°15' W 118°05'1312.0
2017-Nov-15 03:23N 33°28' W 118°10'512.5
2017-Nov-15 03:00N 33°32' W 118°12'611.0
2017-Nov-15 02:30N 33°38' W 118°11'4 8.1
2017-Nov-15 02:00N 33°41' W 118°08'0 0.0
2017-Nov-15 00:55N 33°41' W 118°08'0 0.0
2017-Nov-15 00:01N 33°41' W 118°08'0 0.0
2017-Nov-14 23:43N 33°41' W 118°08'0 0.0
2017-Nov-14 23:25N 33°41' W 118°08'0 0.0
2017-Nov-14 22:01N 33°41' W 118°08'0 0.0
2017-Nov-14 21:49N 33°41' W 118°08'0 0.0
2017-Nov-14 21:25N 33°41' W 118°08'0 0.0
2017-Nov-14 20:55N 33°41' W 118°08'0 0.0
2017-Nov-14 20:19N 33°41' W 118°08'0 0.0
2017-Nov-14 19:55N 33°41' W 118°08'0 0.3
2017-Nov-14 19:19N 33°41' W 118°09'0 1.0
2017-Nov-14 19:00N 33°41' W 118°09'5 9.0
2017-Nov-14 18:28N 33°42' W 118°15'3 6.7
2017-Nov-14 17:59N 33°45' W 118°17'3 0.1
2017-Nov-12 23:12N 33°43' W 118°14'0 0.1
2017-Nov-12 22:48N 33°43' W 118°14'0 0.1
2017-Nov-12 21:35N 33°43' W 118°14'0 0.1
2017-Nov-12 21:30N 33°43' W 118°14'0 0.0
2017-Nov-12 21:00N 33°43' W 118°14'0 0.0
2017-Nov-12 12:54N 33°43' W 118°14'0 0.0
2017-Nov-12 11:53N 33°43' W 118°14'0 0.0
2017-Nov-12 11:24N 33°43' W 118°14'0 0.0
2017-Nov-12 10:05N 33°43' W 118°14'0 0.0
2017-Nov-12 09:53N 33°43' W 118°14'0 0.0
2017-Nov-12 09:24N 33°43' W 118°14'0 0.0
2017-Nov-12 06:18N 33°43' W 118°14'0 0.0
2017-Nov-12 02:53N 33°43' W 118°14'0 0.0
2017-Nov-12 02:29N 33°43' W 118°14'0 0.0
2017-Nov-12 01:17N 33°43' W 118°14'0 0.0
2017-Nov-12 00:48N 33°43' W 118°14'4 0.6
2017-Nov-11 17:19N 33°39' W 118°11'511.4
2017-Nov-11 16:51N 33°36' W 118°16'611.4
2017-Nov-11 16:20N 33°36' W 118°23'411.8
2017-Nov-11 16:00N 33°36' W 118°28'611.6
2017-Nov-11 15:30N 33°37' W 118°35'611.4
2017-Nov-11 15:00N 33°37' W 118°42'713.2
2017-Nov-11 14:30N 33°37' W 118°50'510.5
2017-Nov-11 14:00N 33°38' W 118°56'510.9
2017-Nov-11 13:30N 33°38' W 119°03'611.1
2017-Nov-11 13:00N 33°38' W 119°09'510.6
2017-Nov-11 12:30N 33°38' W 119°16'510.6
2017-Nov-11 11:59N 33°38' W 119°22'610.9
2017-Nov-11 11:28N 33°38' W 119°29'510.8
2017-Nov-11 11:00N 33°38' W 119°35'510.9
2017-Nov-11 10:30N 33°38' W 119°42'510.7
2017-Nov-11 10:00N 33°38' W 119°48'711.1
2017-Nov-11 09:23N 33°38' W 119°56'410.8
2017-Nov-11 09:00N 33°38' W 120°01'610.9
2017-Nov-11 08:24N 33°38' W 120°09'511.2
2017-Nov-11 08:00N 33°38' W 120°15'611.3
2017-Nov-11 07:30N 33°38' W 120°21'611.1
2017-Nov-11 07:00N 33°38' W 120°28'510.9
2017-Nov-11 06:30N 33°38' W 120°34'611.1
2017-Nov-11 06:00N 33°38' W 120°41'19113.7
2017-Nov-10 16:06N 35°60' W 123°16'214.9
2017-Nov-10 15:58N 36°02' W 123°17'9111.3
2017-Nov-10 07:52N 37°32' W 123°05'410.7
2017-Nov-10 07:30N 37°35' W 123°02'510.9
2017-Nov-10 07:00N 37°38' W 122°56'510.8
2017-Nov-10 06:30N 37°41' W 122°50'510.7
2017-Nov-10 06:00N 37°44' W 122°45'4 8.5
2017-Nov-10 05:30N 37°46' W 122°39'713.2
2017-Nov-10 05:01N 37°48' W 122°32'612.2
2017-Nov-10 04:30N 37°51' W 122°25'611.2
2017-Nov-10 04:00N 37°56' W 122°27'611.3
2017-Nov-10 03:30N 38°01' W 122°24'510.3
2017-Nov-10 03:00N 38°03' W 122°18'2 4.6
2017-Nov-10 02:29N 38°04' W 122°15'0 0.0
2017-Nov-08 07:37N 38°04' W 122°15'0 0.5
2017-Nov-08 07:30N 38°04' W 122°15'2 3.0
2017-Nov-08 07:00N 38°03' W 122°17'4 7.5
2017-Nov-08 06:30N 38°03' W 122°21'4 8.7
2017-Nov-08 06:00N 37°60' W 122°25'4 7.0
2017-Nov-08 05:30N 37°56' W 122°27'4 7.4
2017-Nov-08 05:00N 37°53' W 122°25'5 9.8
2017-Nov-08 04:30N 37°48' W 122°23'3 4.8
2017-Nov-08 03:59N 37°46' W 122°21'0 0.0
2017-Nov-08 03:29N 37°46' W 122°21'0 0.0
2017-Nov-08 02:59N 37°46' W 122°21'0 0.0
2017-Nov-08 02:29N 37°46' W 122°21'0 0.0
2017-Nov-08 01:59N 37°46' W 122°21'0 0.0
2017-Nov-08 01:29N 37°46' W 122°21'0 0.0
2017-Nov-08 00:59N 37°46' W 122°21'0 0.0
2017-Nov-08 00:29N 37°46' W 122°21'0 0.0
2017-Nov-07 23:59N 37°46' W 122°21'0 0.0
2017-Nov-07 23:29N 37°46' W 122°21'0 0.0
2017-Nov-07 22:59N 37°46' W 122°21'0 0.3
2017-Nov-07 22:29N 37°46' W 122°21'0 0.2
2017-Nov-07 21:59N 37°46' W 122°21'0 0.0
2017-Nov-07 21:29N 37°46' W 122°21'0 0.0
2017-Nov-07 20:59N 37°46' W 122°21'0 0.0
2017-Nov-07 20:29N 37°46' W 122°21'0 0.1
2017-Nov-07 19:59N 37°46' W 122°21'0 0.0
2017-Nov-07 19:29N 37°46' W 122°21'0 0.0
2017-Nov-07 18:59N 37°46' W 122°21'0 0.0
2017-Nov-07 18:29N 37°46' W 122°21'0 0.0
2017-Nov-07 17:59N 37°46' W 122°21'0 0.1
2017-Nov-07 17:29N 37°46' W 122°21'0 0.0
2017-Nov-07 16:59N 37°46' W 122°21'0 0.2
2017-Nov-07 16:29N 37°46' W 122°21'0 0.2
2017-Nov-07 15:59N 37°46' W 122°21'0 0.0
2017-Nov-07 15:29N 37°46' W 122°21'0 0.1
2017-Nov-07 14:59N 37°46' W 122°21'0 0.0
2017-Nov-07 14:29N 37°46' W 122°21'0 0.0
2017-Nov-07 13:59N 37°46' W 122°21'  
Track history (hours):
 
Tides and Currents Weather Stations Pressure Air Temp Water Temp Dewpoint Dewpoint Depression Visibility Wind Speed Wind Dir Waves Ship Positions

Empire State

Owner: Crowley Petroleum Services, Jacksonville, FL. More information available from US FCC via Universal Licensing System and Coast Guard Vessel Documentation Center.

Last reported at 2017-Nov-17 13:36 UTC. Time now 2017-Nov-25 06:08 UTC.
Position N 34°09' W 122°02'.

Length 183 m; draft 9.3 m.

Type: Military. MMSI: 367353080.

Date/timePositionNaut miles runAvg speedWind from/ knotsBaromVisibWave heightAir tempDewpointWater temp
2017-Nov-17 13:36N 34°09' W 122°02'113.8
2017-Nov-17 13:30N 34°08' W 122°00'714.0
2017-Nov-17 13:01N 34°03' W 121°55'714.1
2017-Nov-17 12:31N 33°57' W 121°49'713.8
2017-Nov-17 12:00N 33°52' W 121°43'713.9
2017-Nov-17 11:30N 33°47' W 121°37'714.1
2017-Nov-17 11:01N 33°42' W 121°32'714.2
2017-Nov-17 10:31N 33°37' W 121°26'714.1
2017-Nov-17 10:01N 33°32' W 121°20'713.7
2017-Nov-17 09:30N 33°27' W 121°15'713.3
2017-Nov-17 09:00N 33°22' W 121°09'714.0
2017-Nov-17 08:31N 33°17' W 121°03'714.1
2017-Nov-17 08:00N 33°12' W 120°58'714.3
2017-Nov-17 07:31N 33°07' W 120°52'714.3
2017-Nov-17 07:01N 33°01' W 120°46'714.4
2017-Nov-17 06:30N 32°56' W 120°40'714.6
2017-Nov-17 06:01N 32°51' W 120°34'714.8
2017-Nov-17 05:31N 32°45' W 120°28'714.7
2017-Nov-17 05:01N 32°40' W 120°22'714.4
2017-Nov-17 04:30N 32°35' W 120°17'714.4
2017-Nov-17 04:00N 32°29' W 120°11'714.7
2017-Nov-17 03:31N 32°24' W 120°05'1013.8
2017-Nov-17 02:45N 32°19' W 119°54'1014.4
2017-Nov-17 02:05N 32°17' W 119°43'113.4
2017-Nov-17 02:01N 32°17' W 119°42'714.6
2017-Nov-17 01:31N 32°15' W 119°33'714.3
2017-Nov-17 01:00N 32°14' W 119°25'713.8
2017-Nov-17 00:30N 32°13' W 119°17'814.3
2017-Nov-16 23:58N 32°11' W 119°08'714.9
2017-Nov-16 23:30N 32°14' W 119°00'714.8
2017-Nov-16 23:01N 32°17' W 118°53'714.9
2017-Nov-16 22:31N 32°20' W 118°45'715.0
2017-Nov-16 22:01N 32°24' W 118°37'815.3
2017-Nov-16 21:31N 32°27' W 118°29'815.2
2017-Nov-16 21:01N 32°31' W 118°21'815.4
2017-Nov-16 20:30N 32°34' W 118°12'815.3
2017-Nov-16 20:01N 32°38' W 118°04'815.2
2017-Nov-16 19:30N 32°41' W 117°56'714.4
2017-Nov-16 19:01N 32°42' W 117°48'815.2
2017-Nov-16 18:30N 32°41' W 117°39'715.0
2017-Nov-16 18:00N 32°39' W 117°30'714.3
2017-Nov-16 17:31N 32°38' W 117°22'711.6
2017-Nov-16 16:55N 32°38' W 117°14'3 0.1
2017-Nov-15 15:41N 32°41' W 117°14'1 3.8
2017-Nov-15 15:25N 32°40' W 117°14'3 8.2
2017-Nov-15 15:00N 32°37' W 117°14'4 7.8
2017-Nov-15 14:29N 32°37' W 117°19'4 8.5
2017-Nov-15 14:00N 32°38' W 117°24'4 8.2
2017-Nov-15 13:30N 32°39' W 117°29'4 8.3
2017-Nov-15 13:00N 32°40' W 117°33'4 8.2
2017-Nov-15 12:30N 32°40' W 117°38'4 7.8
2017-Nov-15 12:00N 32°41' W 117°43'3 5.2
2017-Nov-15 11:30N 32°42' W 117°46'2 4.7
2017-Nov-15 11:00N 32°42' W 117°49'2 4.7
2017-Nov-15 10:30N 32°42' W 117°51'2 4.1
2017-Nov-15 10:00N 32°44' W 117°53'3 5.0
2017-Nov-15 09:30N 32°46' W 117°54'3 5.1
2017-Nov-15 09:00N 32°48' W 117°55'3 5.1
2017-Nov-15 08:30N 32°51' W 117°56'3 5.2
2017-Nov-15 08:00N 32°53' W 117°57'3 5.2
2017-Nov-15 07:30N 32°56' W 117°58'3 5.3
2017-Nov-15 07:00N 32°58' W 117°59'3 5.3
2017-Nov-15 06:30N 33°01' W 118°00'3 5.3
2017-Nov-15 06:00N 33°03' W 118°01'3 5.5
2017-Nov-15 05:30N 33°06' W 118°02'3 6.9
2017-Nov-15 05:00N 33°09' W 118°03'612.0
2017-Nov-15 04:30N 33°15' W 118°05'1312.0
2017-Nov-15 03:23N 33°28' W 118°10'512.5
2017-Nov-15 03:00N 33°32' W 118°12'611.0
2017-Nov-15 02:30N 33°38' W 118°11'4 8.1
2017-Nov-15 02:00N 33°41' W 118°08'0 0.0
2017-Nov-15 00:55N 33°41' W 118°08'0 0.0
2017-Nov-15 00:01N 33°41' W 118°08'0 0.0
2017-Nov-14 23:43N 33°41' W 118°08'0 0.0
2017-Nov-14 23:25N 33°41' W 118°08'0 0.0
2017-Nov-14 22:01N 33°41' W 118°08'0 0.0
2017-Nov-14 21:49N 33°41' W 118°08'0 0.0
2017-Nov-14 21:25N 33°41' W 118°08'0 0.0
2017-Nov-14 20:55N 33°41' W 118°08'0 0.0
2017-Nov-14 20:19N 33°41' W 118°08'0 0.0
2017-Nov-14 19:55N 33°41' W 118°08'0 0.3
2017-Nov-14 19:19N 33°41' W 118°09'0 1.0
2017-Nov-14 19:00N 33°41' W 118°09'5 9.0
2017-Nov-14 18:28N 33°42' W 118°15'3 6.7
2017-Nov-14 17:59N 33°45' W 118°17'3 0.1
2017-Nov-12 23:12N 33°43' W 118°14'0 0.1
2017-Nov-12 22:48N 33°43' W 118°14'0 0.1
2017-Nov-12 21:35N 33°43' W 118°14'0 0.1
2017-Nov-12 21:30N 33°43' W 118°14'0 0.0
2017-Nov-12 21:00N 33°43' W 118°14'0 0.0
2017-Nov-12 12:54N 33°43' W 118°14'0 0.0
2017-Nov-12 11:53N 33°43' W 118°14'0 0.0
2017-Nov-12 11:24N 33°43' W 118°14'0 0.0
2017-Nov-12 10:05N 33°43' W 118°14'0 0.0
2017-Nov-12 09:53N 33°43' W 118°14'0 0.0
2017-Nov-12 09:24N 33°43' W 118°14'0 0.0
2017-Nov-12 06:18N 33°43' W 118°14'0 0.0
2017-Nov-12 02:53N 33°43' W 118°14'0 0.0
2017-Nov-12 02:29N 33°43' W 118°14'0 0.0
2017-Nov-12 01:17N 33°43' W 118°14'0 0.0
2017-Nov-12 00:48N 33°43' W 118°14'4 0.6
2017-Nov-11 17:19N 33°39' W 118°11'511.4
2017-Nov-11 16:51N 33°36' W 118°16'611.4
2017-Nov-11 16:20N 33°36' W 118°23'411.8
2017-Nov-11 16:00N 33°36' W 118°28'611.6
2017-Nov-11 15:30N 33°37' W 118°35'611.4
2017-Nov-11 15:00N 33°37' W 118°42'713.2
2017-Nov-11 14:30N 33°37' W 118°50'510.5
2017-Nov-11 14:00N 33°38' W 118°56'510.9
2017-Nov-11 13:30N 33°38' W 119°03'611.1
2017-Nov-11 13:00N 33°38' W 119°09'510.6
2017-Nov-11 12:30N 33°38' W 119°16'510.6
2017-Nov-11 11:59N 33°38' W 119°22'610.9
2017-Nov-11 11:28N 33°38' W 119°29'510.8
2017-Nov-11 11:00N 33°38' W 119°35'510.9
2017-Nov-11 10:30N 33°38' W 119°42'510.7
2017-Nov-11 10:00N 33°38' W 119°48'711.1
2017-Nov-11 09:23N 33°38' W 119°56'410.8
2017-Nov-11 09:00N 33°38' W 120°01'610.9
2017-Nov-11 08:24N 33°38' W 120°09'511.2
2017-Nov-11 08:00N 33°38' W 120°15'611.3
2017-Nov-11 07:30N 33°38' W 120°21'611.1
2017-Nov-11 07:00N 33°38' W 120°28'510.9
2017-Nov-11 06:30N 33°38' W 120°34'611.1
2017-Nov-11 06:00N 33°38' W 120°41'19113.7
2017-Nov-10 16:06N 35°60' W 123°16'214.9
2017-Nov-10 15:58N 36°02' W 123°17'9111.3
2017-Nov-10 07:52N 37°32' W 123°05'410.7
2017-Nov-10 07:30N 37°35' W 123°02'510.9
2017-Nov-10 07:00N 37°38' W 122°56'510.8
2017-Nov-10 06:30N 37°41' W 122°50'510.7
2017-Nov-10 06:00N 37°44' W 122°45'4 8.5
2017-Nov-10 05:30N 37°46' W 122°39'713.2
2017-Nov-10 05:01N 37°48' W 122°32'612.2
2017-Nov-10 04:30N 37°51' W 122°25'611.2
2017-Nov-10 04:00N 37°56' W 122°27'611.3
2017-Nov-10 03:30N 38°01' W 122°24'510.3
2017-Nov-10 03:00N 38°03' W 122°18'2 4.6
2017-Nov-10 02:29N 38°04' W 122°15'0 0.0
2017-Nov-08 07:37N 38°04' W 122°15'0 0.5
2017-Nov-08 07:30N 38°04' W 122°15'2 3.0
2017-Nov-08 07:00N 38°03' W 122°17'4 7.5
2017-Nov-08 06:30N 38°03' W 122°21'4 8.7
2017-Nov-08 06:00N 37°60' W 122°25'4 7.0
2017-Nov-08 05:30N 37°56' W 122°27'4 7.4
2017-Nov-08 05:00N 37°53' W 122°25'5 9.8
2017-Nov-08 04:30N 37°48' W 122°23'3 4.8
2017-Nov-08 03:59N 37°46' W 122°21'0 0.0
2017-Nov-08 03:29N 37°46' W 122°21'0 0.0
2017-Nov-08 02:59N 37°46' W 122°21'0 0.0
2017-Nov-08 02:29N 37°46' W 122°21'0 0.0
2017-Nov-08 01:59N 37°46' W 122°21'0 0.0
2017-Nov-08 01:29N 37°46' W 122°21'0 0.0
2017-Nov-08 00:59N 37°46' W 122°21'0 0.0
2017-Nov-08 00:29N 37°46' W 122°21'0 0.0
2017-Nov-07 23:59N 37°46' W 122°21'0 0.0
2017-Nov-07 23:29N 37°46' W 122°21'0 0.0
2017-Nov-07 22:59N 37°46' W 122°21'0 0.3
2017-Nov-07 22:29N 37°46' W 122°21'0 0.2
2017-Nov-07 21:59N 37°46' W 122°21'0 0.0
2017-Nov-07 21:29N 37°46' W 122°21'0 0.0
2017-Nov-07 20:59N 37°46' W 122°21'0 0.0
2017-Nov-07 20:29N 37°46' W 122°21'0 0.1
2017-Nov-07 19:59N 37°46' W 122°21'0 0.0
2017-Nov-07 19:29N 37°46' W 122°21'0 0.0
2017-Nov-07 18:59N 37°46' W 122°21'0 0.0
2017-Nov-07 18:29N 37°46' W 122°21'0 0.0
2017-Nov-07 17:59N 37°46' W 122°21'0 0.1
2017-Nov-07 17:29N 37°46' W 122°21'0 0.0
2017-Nov-07 16:59N 37°46' W 122°21'0 0.2
2017-Nov-07 16:29N 37°46' W 122°21'0 0.2
2017-Nov-07 15:59N 37°46' W 122°21'0 0.0
2017-Nov-07 15:29N 37°46' W 122°21'0 0.1
2017-Nov-07 14:59N 37°46' W 122°21'0 0.0
2017-Nov-07 14:29N 37°46' W 122°21'0 0.0
2017-Nov-07 13:59N 37°46' W 122°21'  

Dump ship's entire track history